La Fargeville, New York
Current Conditions -  °F | °C
As of 12:56 AM on Saturday 29 Nov 2014 (Local Time) from KART Reporting Station
Overcast Overcast  
Wind Chill: 26°   Ceiling: 3900
Heat Index: 26°   Visibility: 10mi
Dew Point: 12°   Wind: 0mph
Humidity: 55%   Direction: NA
Pressure: 30.21"   Gusts: NA
Location:  44.2°N, 75.97°W
Report Text: KART 290556Z AUTO 00000KT 10SM OVC039 M03/M11 A3021 RMK AO2 SLP238 T10331111 11022 21050 52001 $
Loading
Personal Weather Stations






























Interactive Weather Map New forecast layout! Learn more

10-Day Weather Forecast

Advertisements
Track Severe Weather on mobile